FYWB

Details ICAO FYWB (WVB)
Name WALVIS BAY
Region Namibia
Timezone Africa/Windhoek (UTC+2.0)
Plans Departing 20
Arriving 18
Stats Elevation 299 ft / 91 m (AMSL)
Location -22.979889° 14.645331°
Runways 1
Magnetic Variation 12.858° W
Sunrise 2018-06-20 05:42:34 UTC / 2018-06-20 07:42:34 Local
Sunset 2018-06-20 16:25:51 UTC / 2018-06-20 18:25:51 Local
Advertisement - Login to hide

Runways

ID Width Length Bearing (true) Bearing (mag) Surface Threshold Offset Overrun Length
09 98 ft / 30 m 6,984 ft / 2,129 m 71.49° 84.35° Asphalt 0 ft / 0 m 70 ft / 21 m
27 98 ft / 30 m 6,984 ft / 2,129 m 251.48° 264.34° Asphalt 0 ft / 0 m 70 ft / 21 m

Map

Weather


0- 5 10 15 20 25 30 35+ Temperature / ° C

Clouds and Precipitation
Forecast for 2018-06-20 06:00 UTC. Updated 6 hours ago

Ground ~20,000 ft ~40,000 ft Winds

METAR

FYWB 200900Z AUTO 04001KT //// // ////// 12/11 Q1021

TAF

TAF AMD FYWB 200615Z 2006/2106 06006KT 0100 FG OVC003 BECMG 2007/2009 20006KT 9999 NSW OVC010 BECMG 2009/2011 CAVOK BECMG 2019/2021 9999 BKN015 TEMPO 2022/2106 06003KT 0600 FG OVC006

Frequencies

Tower 122.50 MHz TWR
Approach 122.50 MHz APP
Warning: Do not use this data for real-world aviation or navigation. No guarantee of current accuracy is given.